createdAt,value
2023-01-27T00:00:30.412Z,96.10
2023-01-27T00:01:53.244Z,96.06
2023-01-27T00:02:56.182Z,96.04
2023-01-27T00:04:00.191Z,96.00
2023-01-27T00:05:03.800Z,96.07
2023-01-27T00:06:12.133Z,95.94
2023-01-27T00:07:15.375Z,95.99
2023-01-27T00:08:20.070Z,96.15
2023-01-27T00:09:23.552Z,96.11
2023-01-27T00:10:27.316Z,96.01
2023-01-27T00:11:48.763Z,95.76
2023-01-27T00:13:10.609Z,95.92
2023-01-27T00:14:13.602Z,96.15
2023-01-27T00:15:17.102Z,96.23
2023-01-27T00:16:20.258Z,96.02
2023-01-27T00:17:23.254Z,96.04
2023-01-27T00:18:26.467Z,95.94
2023-01-27T00:19:29.297Z,96.04
2023-01-27T00:20:51.325Z,96.23
2023-01-27T00:22:15.195Z,96.35
2023-01-27T00:23:43.800Z,96.26
2023-01-27T00:24:46.796Z,96.53
2023-01-27T00:25:51.020Z,96.70
2023-01-27T00:26:53.948Z,96.60
2023-01-27T00:27:56.894Z,96.35
2023-01-27T00:29:01.868Z,96.53
2023-01-27T00:30:08.303Z,96.73
2023-01-27T00:31:32.671Z,96.70
2023-01-27T00:32:54.296Z,96.84
2023-01-27T00:34:09.934Z,96.79
2023-01-27T00:35:16.771Z,96.87
2023-01-27T00:36:20.156Z,96.50
2023-01-27T00:37:23.371Z,96.48
2023-01-27T00:38:31.569Z,96.55
2023-01-27T00:39:34.774Z,96.62
2023-01-27T00:40:39.544Z,96.85
2023-01-27T00:41:42.512Z,96.65
2023-01-27T00:42:45.660Z,96.74
2023-01-27T00:43:55.198Z,96.89
2023-01-27T00:45:18.823Z,96.95
2023-01-27T00:46:23.943Z,96.90
2023-01-27T00:47:27.102Z,97.06
2023-01-27T00:48:29.953Z,97.05
2023-01-27T00:49:33.495Z,97.11
2023-01-27T00:50:38.999Z,96.84
2023-01-27T00:51:44.873Z,96.74
2023-01-27T00:52:48.023Z,96.73
2023-01-27T00:53:52.207Z,96.66
2023-01-27T00:54:55.029Z,96.61
2023-01-27T00:55:58.354Z,96.65
2023-01-27T00:57:01.348Z,96.51
2023-01-27T00:58:04.440Z,96.48
2023-01-27T00:59:07.425Z,96.66
2023-01-27T01:00:12.560Z,96.67
2023-01-27T01:01:16.990Z,96.90
2023-01-27T01:02:19.903Z,96.75
2023-01-27T01:03:24.686Z,96.85
2023-01-27T01:04:27.806Z,96.89
2023-01-27T01:05:30.735Z,96.84
2023-01-27T01:06:34.589Z,97.06
2023-01-27T01:07:40.002Z,97.11
2023-01-27T01:08:44.819Z,96.89
2023-01-27T01:09:47.974Z,96.90
2023-01-27T01:10:51.561Z,96.81
2023-01-27T01:11:54.645Z,96.76
2023-01-27T01:12:57.885Z,97.17
2023-01-27T01:14:00.794Z,97.12
2023-01-27T01:15:03.950Z,97.02
2023-01-27T01:16:10.529Z,97.38
2023-01-27T01:17:14.199Z,97.41
2023-01-27T01:18:17.256Z,97.39
2023-01-27T01:19:20.082Z,97.67
2023-01-27T01:20:24.219Z,97.57
2023-01-27T01:21:27.092Z,97.85
2023-01-27T01:22:31.159Z,97.76
2023-01-27T01:23:37.962Z,97.64
2023-01-27T01:24:40.820Z,97.64
2023-01-27T01:25:43.650Z,97.78
2023-01-27T01:26:46.706Z,97.90
2023-01-27T01:27:50.268Z,97.80
2023-01-27T01:28:53.229Z,97.35
2023-01-27T01:29:56.216Z,97.61
2023-01-27T01:31:07.254Z,97.52
2023-01-27T01:32:11.116Z,97.63
2023-01-27T01:33:14.366Z,97.40
2023-01-27T01:34:17.603Z,97.43
2023-01-27T01:35:21.634Z,97.10
2023-01-27T01:36:25.532Z,97.24
2023-01-27T01:37:28.716Z,97.43
2023-01-27T01:38:31.893Z,97.39
2023-01-27T01:39:34.961Z,97.22
2023-01-27T01:40:41.779Z,97.15
2023-01-27T01:41:45.577Z,97.18
2023-01-27T01:42:57.254Z,97.42
2023-01-27T01:44:25.146Z,97.39
2023-01-27T01:45:31.384Z,97.39
2023-01-27T01:46:34.253Z,97.37
2023-01-27T01:47:38.421Z,97.45
2023-01-27T01:48:47.789Z,97.64
2023-01-27T01:49:51.149Z,97.59
2023-01-27T01:51:01.932Z,97.42
2023-01-27T01:52:13.832Z,97.28
2023-01-27T01:53:21.765Z,97.39
2023-01-27T01:54:33.639Z,97.35
2023-01-27T01:55:40.173Z,97.16
2023-01-27T01:57:05.374Z,97.34
2023-01-27T01:58:13.203Z,96.94
2023-01-27T01:59:30.875Z,96.90
2023-01-27T02:00:35.045Z,96.91
2023-01-27T02:01:41.169Z,97.03
2023-01-27T02:02:46.105Z,96.86
2023-01-27T02:03:54.560Z,96.79
2023-01-27T02:05:11.799Z,96.91
2023-01-27T02:06:17.614Z,96.88
2023-01-27T02:07:46.012Z,97.09
2023-01-27T02:08:52.118Z,96.77
2023-01-27T02:10:02.384Z,96.81
2023-01-27T02:11:08.760Z,96.79
2023-01-27T02:12:13.585Z,96.90
2023-01-27T02:13:18.070Z,96.74
2023-01-27T02:14:21.073Z,96.85
2023-01-27T02:15:26.988Z,96.71
2023-01-27T02:16:30.468Z,96.96
2023-01-27T02:17:35.975Z,96.78
2023-01-27T02:18:41.896Z,96.86
2023-01-27T02:20:26.846Z,96.59
2023-01-27T02:21:31.107Z,96.38
2023-01-27T02:22:54.479Z,96.54
2023-01-27T02:24:10.953Z,96.61
2023-01-27T02:25:28.780Z,96.73
2023-01-27T02:26:54.655Z,96.47
2023-01-27T02:27:57.551Z,96.64
2023-01-27T02:29:08.098Z,96.79
2023-01-27T02:30:13.335Z,96.94
